NGFU

Details ICAO NGFU (FUN)
Name Funafuti Atol Intl
Region Kiribati and Tuvalu
Timezone Unknown (UTC+0.0)
Plans Departing 17
Arriving 19
Stats Elevation 6 ft / 2 m (AMSL)
Location -8.524020° 179.196801°
Runways 1
Magnetic Variation 10.656° E
Sunrise 2018-05-26 18:11:28 UTC / 2018-05-26 18:11:28 Local
Sunset 2018-05-27 05:52:02 UTC / 2018-05-27 05:52:02 Local
Advertisement - Login to hide

Runways

ID Width Length Bearing (true) Bearing (mag) Surface Threshold Offset Overrun Length
03 98 ft / 30 m 5,055 ft / 1,541 m 42.90° 32.24° Asphalt 0 ft / 0 m 0 ft / 0 m
21 98 ft / 30 m 5,055 ft / 1,541 m 222.90° 212.24° Asphalt 0 ft / 0 m 0 ft / 0 m

Map

Weather


0- 5 10 15 20 25 30 35+ Temperature / ° C

Clouds and Precipitation
Forecast for 2018-05-26 18:00 UTC. Updated 3 hours ago

Ground ~20,000 ft ~40,000 ft Winds

METAR

Not found

TAF

TAF NGFU 261722Z 2618/2718 12007KT 9999 SCT019 PROB30 TEMPO 2618/2712 8000 SHRA BKN017
Warning: Do not use this data for real-world aviation or navigation. No guarantee of current accuracy is given.